sensor_id;sensor_type;location;lat;lon;timestamp;temperature;humidity
1594;DHT22;790;47.000;16.084;2023-12-20T00:07:01;-0.40;99.90
1594;DHT22;790;47.000;16.084;2023-12-20T00:13:23;-0.50;99.90
1594;DHT22;790;47.000;16.084;2023-12-20T00:19:45;-0.50;99.90
1594;DHT22;790;47.000;16.084;2023-12-20T00:26:09;-0.50;99.90
1594;DHT22;790;47.000;16.084;2023-12-20T00:32:31;-0.50;99.90
1594;DHT22;790;47.000;16.084;2023-12-20T00:38:53;-0.60;99.90
1594;DHT22;790;47.000;16.084;2023-12-20T00:45:18;-0.60;99.90
1594;DHT22;790;47.000;16.084;2023-12-20T00:51:40;-0.60;99.90
1594;DHT22;790;47.000;16.084;2023-12-20T00:58:02;-0.60;99.90
1594;DHT22;790;47.000;16.084;2023-12-20T01:09:10;-0.80;99.90
1594;DHT22;790;47.000;16.084;2023-12-20T01:15:32;-0.80;99.90
1594;DHT22;790;47.000;16.084;2023-12-20T01:21:54;-0.90;99.90
1594;DHT22;790;47.000;16.084;2023-12-20T01:28:19;-0.70;99.90
1594;DHT22;790;47.000;16.084;2023-12-20T01:34:42;-0.70;99.90
1594;DHT22;790;47.000;16.084;2023-12-20T01:41:04;-0.70;99.90
1594;DHT22;790;47.000;16.084;2023-12-20T01:47:28;-0.80;99.90
1594;DHT22;790;47.000;16.084;2023-12-20T01:53:50;-0.90;99.90
1594;DHT22;790;47.000;16.084;2023-12-20T02:00:14;-0.80;99.90
1594;DHT22;790;47.000;16.084;2023-12-20T02:11:22;-1.00;99.90
1594;DHT22;790;47.000;16.084;2023-12-20T02:17:47;-1.00;99.90
1594;DHT22;790;47.000;16.084;2023-12-20T02:24:11;-1.10;99.90
1594;DHT22;790;47.000;16.084;2023-12-20T02:30:33;-1.10;99.90
1594;DHT22;790;47.000;16.084;2023-12-20T02:36:55;-1.20;99.90
1594;DHT22;790;47.000;16.084;2023-12-20T02:43:19;-1.10;99.90
1594;DHT22;790;47.000;16.084;2023-12-20T02:49:40;-1.00;99.90
1594;DHT22;790;47.000;16.084;2023-12-20T02:56:03;-1.00;99.90
1594;DHT22;790;47.000;16.084;2023-12-20T03:02:27;-1.20;99.90
1594;DHT22;790;47.000;16.084;2023-12-20T03:13:34;-1.20;99.90
1594;DHT22;790;47.000;16.084;2023-12-20T03:19:58;-1.20;99.90
1594;DHT22;790;47.000;16.084;2023-12-20T03:26:20;-1.10;99.90
1594;DHT22;790;47.000;16.084;2023-12-20T03:32:44;-1.10;99.90
1594;DHT22;790;47.000;16.084;2023-12-20T03:39:08;-1.30;99.90
1594;DHT22;790;47.000;16.084;2023-12-20T03:45:30;-1.10;99.90
1594;DHT22;790;47.000;16.084;2023-12-20T03:51:52;-1.20;99.90
1594;DHT22;790;47.000;16.084;2023-12-20T03:58:16;-1.10;99.90
1594;DHT22;790;47.000;16.084;2023-12-20T04:04:38;-1.20;99.90
1594;DHT22;790;47.000;16.084;2023-12-20T04:15:46;-1.30;99.90
1594;DHT22;790;47.000;16.084;2023-12-20T04:22:10;-1.50;99.90
1594;DHT22;790;47.000;16.084;2023-12-20T04:28:32;-1.30;99.90
1594;DHT22;790;47.000;16.084;2023-12-20T04:34:57;-1.30;99.90
1594;DHT22;790;47.000;16.084;2023-12-20T04:41:29;-1.30;99.90
1594;DHT22;790;47.000;16.084;2023-12-20T04:47:52;-1.30;99.90
1594;DHT22;790;47.000;16.084;2023-12-20T04:54:17;-1.40;99.90
1594;DHT22;790;47.000;16.084;2023-12-20T05:00:39;-1.50;99.90
1594;DHT22;790;47.000;16.084;2023-12-20T05:07:02;-1.50;99.90
1594;DHT22;790;47.000;16.084;2023-12-20T05:18:01;-1.50;99.90
1594;DHT22;790;47.000;16.084;2023-12-20T05:24:24;-1.40;99.90
1594;DHT22;790;47.000;16.084;2023-12-20T05:30:46;-1.30;99.90
1594;DHT22;790;47.000;16.084;2023-12-20T05:37:11;-1.20;99.90
1594;DHT22;790;47.000;16.084;2023-12-20T05:43:34;-1.10;99.90
1594;DHT22;790;47.000;16.084;2023-12-20T05:49:56;-1.20;99.90
1594;DHT22;790;47.000;16.084;2023-12-20T05:56:20;-1.40;99.90
1594;DHT22;790;47.000;16.084;2023-12-20T06:02:42;-1.40;99.90
1594;DHT22;790;47.000;16.084;2023-12-20T06:09:04;-1.40;99.90
1594;DHT22;790;47.000;16.084;2023-12-20T06:20:13;-1.30;99.90
1594;DHT22;790;47.000;16.084;2023-12-20T06:26:35;-1.50;99.90
1594;DHT22;790;47.000;16.084;2023-12-20T06:32:57;-1.50;99.90
1594;DHT22;790;47.000;16.084;2023-12-20T06:39:21;-1.40;99.90
1594;DHT22;790;47.000;16.084;2023-12-20T06:45:42;-1.30;99.90
1594;DHT22;790;47.000;16.084;2023-12-20T06:52:04;-1.40;99.90
1594;DHT22;790;47.000;16.084;2023-12-20T06:58:28;-1.20;99.90
1594;DHT22;790;47.000;16.084;2023-12-20T07:04:50;-1.20;99.90
1594;DHT22;790;47.000;16.084;2023-12-20T07:11:13;-1.20;99.90
1594;DHT22;790;47.000;16.084;2023-12-20T07:22:22;-1.00;99.90
1594;DHT22;790;47.000;16.084;2023-12-20T07:28:44;-1.00;99.90
1594;DHT22;790;47.000;16.084;2023-12-20T07:35:08;-1.00;99.90
1594;DHT22;790;47.000;16.084;2023-12-20T07:41:32;-0.90;99.90
1594;DHT22;790;47.000;16.084;2023-12-20T07:47:54;-0.70;99.90
1594;DHT22;790;47.000;16.084;2023-12-20T07:54:16;-0.40;99.90
1594;DHT22;790;47.000;16.084;2023-12-20T08:00:40;-0.30;99.90
1594;DHT22;790;47.000;16.084;2023-12-20T08:07:03;-0.20;99.90
1594;DHT22;790;47.000;16.084;2023-12-20T08:13:26;0.40;99.90
1594;DHT22;790;47.000;16.084;2023-12-20T08:24:34;0.70;99.90
1594;DHT22;790;47.000;16.084;2023-12-20T08:30:56;0.70;99.90
1594;DHT22;790;47.000;16.084;2023-12-20T08:37:18;1.00;99.90
1594;DHT22;790;47.000;16.084;2023-12-20T08:43:42;1.10;99.90
1594;DHT22;790;47.000;16.084;2023-12-20T08:50:05;1.20;99.90
1594;DHT22;790;47.000;16.084;2023-12-20T08:56:27;1.30;99.90
1594;DHT22;790;47.000;16.084;2023-12-20T09:02:51;1.70;99.90
1594;DHT22;790;47.000;16.084;2023-12-20T09:09:14;1.60;99.90
1594;DHT22;790;47.000;16.084;2023-12-20T09:15:35;1.60;99.90
1594;DHT22;790;47.000;16.084;2023-12-20T09:26:45;2.00;99.90
1594;DHT22;790;47.000;16.084;2023-12-20T09:33:07;1.80;99.90
1594;DHT22;790;47.000;16.084;2023-12-20T09:39:30;1.80;99.90
1594;DHT22;790;47.000;16.084;2023-12-20T09:45:54;1.90;99.90
1594;DHT22;790;47.000;16.084;2023-12-20T09:52:18;2.00;99.90
1594;DHT22;790;47.000;16.084;2023-12-20T09:58:41;2.10;99.90
1594;DHT22;790;47.000;16.084;2023-12-20T10:05:08;2.20;99.90
1594;DHT22;790;47.000;16.084;2023-12-20T10:11:35;2.50;99.90
1594;DHT22;790;47.000;16.084;2023-12-20T10:17:58;2.60;99.90
1594;DHT22;790;47.000;16.084;2023-12-20T10:29:16;2.70;99.90
1594;DHT22;790;47.000;16.084;2023-12-20T10:35:40;2.90;99.90
1594;DHT22;790;47.000;16.084;2023-12-20T10:42:03;3.00;99.90
1594;DHT22;790;47.000;16.084;2023-12-20T10:48:27;3.00;99.90
1594;DHT22;790;47.000;16.084;2023-12-20T10:54:51;3.00;99.90
1594;DHT22;790;47.000;16.084;2023-12-20T11:01:15;2.90;99.90
1594;DHT22;790;47.000;16.084;2023-12-20T11:07:41;3.00;99.90
1594;DHT22;790;47.000;16.084;2023-12-20T11:14:08;3.00;99.90
1594;DHT22;790;47.000;16.084;2023-12-20T11:20:36;3.30;99.90
1594;DHT22;790;47.000;16.084;2023-12-20T11:31:56;3.30;99.90
1594;DHT22;790;47.000;16.084;2023-12-20T11:38:20;3.20;99.90
1594;DHT22;790;47.000;16.084;2023-12-20T11:44:43;3.40;99.90
1594;DHT22;790;47.000;16.084;2023-12-20T11:51:11;3.60;99.90
1594;DHT22;790;47.000;16.084;2023-12-20T11:57:34;3.60;99.90
1594;DHT22;790;47.000;16.084;2023-12-20T12:04:03;3.60;99.90
1594;DHT22;790;47.000;16.084;2023-12-20T12:10:28;3.60;99.90
1594;DHT22;790;47.000;16.084;2023-12-20T12:16:52;3.50;99.90
1594;DHT22;790;47.000;16.084;2023-12-20T12:23:13;3.40;99.90
1594;DHT22;790;47.000;16.084;2023-12-20T12:34:32;3.40;99.90
1594;DHT22;790;47.000;16.084;2023-12-20T12:40:55;3.30;99.90
1594;DHT22;790;47.000;16.084;2023-12-20T12:47:19;3.50;99.90
1594;DHT22;790;47.000;16.084;2023-12-20T12:53:42;3.50;99.90
1594;DHT22;790;47.000;16.084;2023-12-20T13:00:06;3.60;99.90
1594;DHT22;790;47.000;16.084;2023-12-20T13:06:30;3.70;99.90
1594;DHT22;790;47.000;16.084;2023-12-20T13:12:54;3.80;99.90
1594;DHT22;790;47.000;16.084;2023-12-20T13:19:17;3.90;99.90
1594;DHT22;790;47.000;16.084;2023-12-20T13:25:39;3.80;99.90
1594;DHT22;790;47.000;16.084;2023-12-20T13:36:58;3.70;99.90
1594;DHT22;790;47.000;16.084;2023-12-20T13:43:21;3.70;99.90
1594;DHT22;790;47.000;16.084;2023-12-20T13:49:43;3.80;99.90
1594;DHT22;790;47.000;16.084;2023-12-20T13:56:17;3.90;99.90
1594;DHT22;790;47.000;16.084;2023-12-20T14:02:41;3.70;99.90
1594;DHT22;790;47.000;16.084;2023-12-20T14:09:05;3.90;99.90
1594;DHT22;790;47.000;16.084;2023-12-20T14:15:28;4.10;99.90
1594;DHT22;790;47.000;16.084;2023-12-20T14:22:01;3.90;99.90
1594;DHT22;790;47.000;16.084;2023-12-20T14:28:25;4.00;99.90
1594;DHT22;790;47.000;16.084;2023-12-20T14:39:44;3.80;99.90
1594;DHT22;790;47.000;16.084;2023-12-20T14:46:06;3.70;99.90
1594;DHT22;790;47.000;16.084;2023-12-20T14:52:29;3.60;99.90
1594;DHT22;790;47.000;16.084;2023-12-20T14:58:52;3.50;99.90
1594;DHT22;790;47.000;16.084;2023-12-20T15:05:15;3.50;99.90
1594;DHT22;790;47.000;16.084;2023-12-20T15:11:38;3.30;99.90
1594;DHT22;790;47.000;16.084;2023-12-20T15:18:01;3.30;99.90
1594;DHT22;790;47.000;16.084;2023-12-20T15:24:24;3.20;99.90
1594;DHT22;790;47.000;16.084;2023-12-20T15:30:49;3.10;99.90
1594;DHT22;790;47.000;16.084;2023-12-20T15:42:06;2.80;99.90
1594;DHT22;790;47.000;16.084;2023-12-20T15:48:29;2.70;99.90
1594;DHT22;790;47.000;16.084;2023-12-20T15:54:52;2.70;99.90
1594;DHT22;790;47.000;16.084;2023-12-20T16:01:15;2.60;99.90
1594;DHT22;790;47.000;16.084;2023-12-20T16:07:38;2.70;99.90
1594;DHT22;790;47.000;16.084;2023-12-20T16:14:00;2.60;99.90
1594;DHT22;790;47.000;16.084;2023-12-20T16:20:23;2.60;99.90
1594;DHT22;790;47.000;16.084;2023-12-20T16:26:45;2.50;99.90
1594;DHT22;790;47.000;16.084;2023-12-20T16:33:08;2.30;99.90
1594;DHT22;790;47.000;16.084;2023-12-20T16:44:16;2.20;99.90
1594;DHT22;790;47.000;16.084;2023-12-20T16:50:38;2.10;99.90
1594;DHT22;790;47.000;16.084;2023-12-20T16:57:01;2.10;99.90
1594;DHT22;790;47.000;16.084;2023-12-20T17:03:25;2.30;99.90
1594;DHT22;790;47.000;16.084;2023-12-20T17:09:47;2.00;99.90
1594;DHT22;790;47.000;16.084;2023-12-20T17:16:10;1.80;99.90
1594;DHT22;790;47.000;16.084;2023-12-20T17:22:34;1.80;99.90
1594;DHT22;790;47.000;16.084;2023-12-20T17:28:57;1.70;99.90
1594;DHT22;790;47.000;16.084;2023-12-20T17:35:19;1.60;99.90
1594;DHT22;790;47.000;16.084;2023-12-20T17:46:27;1.50;99.90
1594;DHT22;790;47.000;16.084;2023-12-20T17:52:50;1.60;99.90
1594;DHT22;790;47.000;16.084;2023-12-20T17:59:12;1.60;99.90
1594;DHT22;790;47.000;16.084;2023-12-20T18:05:36;1.70;99.90
1594;DHT22;790;47.000;16.084;2023-12-20T18:11:58;1.30;99.90
1594;DHT22;790;47.000;16.084;2023-12-20T18:18:21;1.30;99.90
1594;DHT22;790;47.000;16.084;2023-12-20T18:24:44;1.30;99.90
1594;DHT22;790;47.000;16.084;2023-12-20T18:31:07;1.40;99.90
1594;DHT22;790;47.000;16.084;2023-12-20T18:37:29;1.30;99.90
1594;DHT22;790;47.000;16.084;2023-12-20T18:48:37;1.30;99.90
1594;DHT22;790;47.000;16.084;2023-12-20T18:55:01;1.40;99.90
1594;DHT22;790;47.000;16.084;2023-12-20T19:01:23;1.20;99.90
1594;DHT22;790;47.000;16.084;2023-12-20T19:07:46;1.30;99.90
1594;DHT22;790;47.000;16.084;2023-12-20T19:14:09;1.00;99.90
1594;DHT22;790;47.000;16.084;2023-12-20T19:20:34;0.90;99.90
1594;DHT22;790;47.000;16.084;2023-12-20T19:26:57;1.00;99.90
1594;DHT22;790;47.000;16.084;2023-12-20T19:33:21;1.20;99.90
1594;DHT22;790;47.000;16.084;2023-12-20T19:39:44;1.20;99.90
1594;DHT22;790;47.000;16.084;2023-12-20T19:50:54;0.80;99.90
1594;DHT22;790;47.000;16.084;2023-12-20T19:57:17;1.00;99.90
1594;DHT22;790;47.000;16.084;2023-12-20T20:03:39;1.00;99.90
1594;DHT22;790;47.000;16.084;2023-12-20T20:10:04;0.80;99.90
1594;DHT22;790;47.000;16.084;2023-12-20T20:16:26;0.80;99.90
1594;DHT22;790;47.000;16.084;2023-12-20T20:22:49;0.80;99.90
1594;DHT22;790;47.000;16.084;2023-12-20T20:29:14;0.80;99.90
1594;DHT22;790;47.000;16.084;2023-12-20T20:35:38;0.40;99.90
1594;DHT22;790;47.000;16.084;2023-12-20T20:42:00;0.50;99.90
1594;DHT22;790;47.000;16.084;2023-12-20T20:53:08;0.50;99.90
1594;DHT22;790;47.000;16.084;2023-12-20T20:59:31;0.70;99.90
1594;DHT22;790;47.000;16.084;2023-12-20T21:05:54;0.60;99.90
1594;DHT22;790;47.000;16.084;2023-12-20T21:12:18;0.50;99.90
1594;DHT22;790;47.000;16.084;2023-12-20T21:18:41;0.60;99.90
1594;DHT22;790;47.000;16.084;2023-12-20T21:25:04;0.50;99.90
1594;DHT22;790;47.000;16.084;2023-12-20T21:31:28;0.70;99.90
1594;DHT22;790;47.000;16.084;2023-12-20T21:41:45;0.40;99.90
1594;DHT22;790;47.000;16.084;2023-12-20T21:52:04;0.40;99.90
1594;DHT22;790;47.000;16.084;2023-12-20T21:58:27;0.50;99.90
1594;DHT22;790;47.000;16.084;2023-12-20T22:04:50;0.60;99.90
1594;DHT22;790;47.000;16.084;2023-12-20T22:11:14;0.60;99.90
1594;DHT22;790;47.000;16.084;2023-12-20T22:17:37;0.20;99.90
1594;DHT22;790;47.000;16.084;2023-12-20T22:24:00;0.20;99.90
1594;DHT22;790;47.000;16.084;2023-12-20T22:30:24;0.50;99.90
1594;DHT22;790;47.000;16.084;2023-12-20T22:36:47;0.50;99.90
1594;DHT22;790;47.000;16.084;2023-12-20T22:43:11;0.40;99.90
1594;DHT22;790;47.000;16.084;2023-12-20T22:53:49;0.50;99.90
1594;DHT22;790;47.000;16.084;2023-12-20T23:00:16;0.50;99.90
1594;DHT22;790;47.000;16.084;2023-12-20T23:06:45;0.50;99.90
1594;DHT22;790;47.000;16.084;2023-12-20T23:13:09;0.60;99.90
1594;DHT22;790;47.000;16.084;2023-12-20T23:19:32;0.50;99.90
1594;DHT22;790;47.000;16.084;2023-12-20T23:25:55;0.50;99.90
1594;DHT22;790;47.000;16.084;2023-12-20T23:32:30;0.60;99.90
1594;DHT22;790;47.000;16.084;2023-12-20T23:39:14;0.70;99.90
1594;DHT22;790;47.000;16.084;2023-12-20T23:45:37;0.70;99.90
1594;DHT22;790;47.000;16.084;2023-12-20T23:56:37;0.70;99.90
